Pagrindinis puslapis
METAR-TAF:

METAR-TAF

Oro uostai :

Ilizis, Alžyras

platuma: 26-30N, ilguma: 008-25E, Aukštis: 558 m

Dabartinis oras

Ataskaita buvo paskelbta 1 valandą ir 5 minutes, ne 14:00 UTC
Vėjas 5 kt iš Šiaurės/Šiaurės Vakarų
Temperatūra 43°C
Slėgis 1010 hPa
Matomumas: 8000 m

METAR: DAAP 251400Z 34005KT 8000 NSC 43/// Q1010

Laikas: 16:05 (15:05 UTC)

Prognozė

Ataskaita buvo paskelbta 4 valandos ir 5 minutes, ne 11:00 UTC
Prognozė galioja nuo 25 metu 12 UTC su 25 metu 21 UTC
Vėjas 10 kt iš Šiaurės/Šiaurės Vakarų
Matomumas: 6000 m
Tikimybė 30%
nuo 25 metu 12 UTC su 25 metu 15 UTC
Matomumas: 3000 m
migla,

TAF: DAAP 251100Z 2512/2521 34010KT 6000 NSC PROB30 2512/2515 3000 HZ

Orai ataskaitas ir orų prognozės (METAR, TAF).

turimą stotys yra geltonos ir raudonos taškus žemėlapyje.

Perkelti pele per norėdami pamatyti stoties vardą.

Tada spustelėkite, norėdami matyti oro stebėjimo ir prognozės.

Norėdami pakeisti žemėlapį: spustelėkite ant žalios mygtukų su juodo kryžiaus žemyn,; žalią mygtuką su brūkšneliu, jei norite nutolinti; arba žalių rodyklių gretimoms žemėlapius.


METAR-TAF: